ADDS METAR Data INFO
IDs: Format: Raw Decoded Include TAF

Data at: 0201 UTC 26 Apr 2017

METAR for:EBFS (Florennes(AB), --, BX)
Text:EBFS 260125Z 27004KT 9999 BKN140 M00/M03 Q1011 BLU
Temperature: 0.0°C ( 32°F)
Dewpoint: -3.0°C ( 27°F) [RH = 80%]
Pressure (altimeter):29.85 inches Hg (1011.0 mb)
Winds:from the W (270 degrees) at 5 MPH (4 knots; 2.1 m/s)
Visibility:6 or more sm (10+ km)
Ceiling:14000 feet AGL
Clouds: broken clouds at 14000 feet AGL

TAF for:EBFS (Florennes(AB), --, BX) issued at 1541 UTC 25 Apr 2017
Text:TAF EBFS 251541Z 2519/2607 33007KT 9999 FEW040 SCT220
Forecast period:1900 to 2000 UTC 25 April 2017
Forecast type:FROM: standard forecast or significant change
Winds:from the NNW (330 degrees) at 8 MPH (7 knots; 3.6 m/s)
Visibility:6 or more sm (10+ km)
Ceiling:at least 12,000 feet AGL
Clouds: few clouds at 4000 feet AGL, scattered clouds at 22000 feet AGL
Text:BECMG 2520/2522 VRB04KT
Forecast period:2000 UTC 25 April 2017 to 0700 UTC 26 April 2017
Forecast type:BECOMING: Conditions expected to become as follows by 2200 UTC 25 April 2017
Winds:variable direction winds at 5 MPH (4 knots; 2.1 m/s)
Visibility:6 or more sm (10+ km)
Ceiling:at least 12,000 feet AGL
Clouds: few clouds at 4000 feet AGL, scattered clouds at 22000 feet AGL


Page loaded:  02:01 UTC  |   07:01 PM Pacific  |   08:01 PM Mountain  |   09:01 PM Central  |   10:01 PM Eastern

 

ADVISORIES

FORECASTS

FORECASTS

OBSERVATIONS

USER TOOLS

ABOUT US